Johns Run, Kentucky
Current Conditions -  °F | °C
As of 5:55 AM on Sunday 23 Nov 2014 (Local Time) from KDWU Reporting Station
Overcast Overcast  
Wind Chill: 40°   Ceiling: 10000
Heat Index: 43°   Visibility: 10mi
Dew Point: 34°   Wind: 5mph
Humidity: 70%   Direction: 120°ESE
Pressure: 30.05"   Gusts: NA
Location:  38.3193°N, 82.994°W
Report Text: KDWU 231055Z AUTO 12004KT 10SM FEW048 SCT050 OVC100 06/01 A3005 RMK AO1
Loading
Personal Weather Stations






























Interactive Weather Map New forecast layout! Learn more

10-Day Weather Forecast

Advertisements
Track Severe Weather on mobile